• Join FlightAware (Why Join?)
  • Login
  • US Flag 
07:59PM EDT


 

Airport Tracker/Info


-or-


 

Live Flight TrackerFlight Track Log ✈ THY888 ✈ 15-May-2013 ✈ LTBA / IST - OIMM / MHD

Flight Track Log - Related Links

Times and Time Zones

All times are in EDT time to prevent confusion due to time zone crossing. See the THY888 flight status page for this flight to view local times or setup timezone preferences in your user account.

Time Position Orientation Groundspeed Altitude Reporting Facility
EDT Latitude Longitude Course Direction KTS MPH feet Rate Location/Type
02:21PM 41.0860 28.8430 360° North 258 297 4,100  Level FlightAware
02:22PM 41.0820 28.8950 96° East 264 304 5,500 2,820 Climbing FlightAware
02:23PM 41.0330 28.9680 132° Southeast 282 325 8,400 3,000 Climbing FlightAware
02:23PM 41.0170 28.9930 130° Southeast 284 327 9,300 2,280 Climbing FlightAware
02:24PM 40.9760 29.0590 129° Southeast 330 380 10,900 2,220 Climbing FlightAware
02:25PM 40.9300 29.1300 131° Southeast 353 406 12,700 2,520 Climbing FlightAware
02:25PM 40.8820 29.2070 129° Southeast 359 413 14,700 2,640 Climbing FlightAware
02:26PM 40.8360 29.2790 130° Southeast 374 430 16,500 2,520 Climbing FlightAware
02:27PM 40.7870 29.3550 130° Southeast 380 437 18,300 2,280 Climbing FlightAware
02:27PM 40.7490 29.4380 121° Southeast 389 448 19,800 2,220 Climbing FlightAware
02:28PM 40.7200 29.5280 113° Southeast 397 457 21,300 2,160 Climbing FlightAware
02:29PM 40.6870 29.6300 113° Southeast 407 468 22,900 2,040 Climbing FlightAware
02:30PM 40.6580 29.7240 112° Southeast 414 476 24,200 1,800 Climbing FlightAware
02:30PM 40.6350 29.7930 114° Southeast 422 486 25,000 1,620 Climbing FlightAware
02:31PM 40.6040 29.8900 113° Southeast 428 493 26,100 1,620 Climbing FlightAware
02:31PM 40.5690 29.9980 113° Southeast 437 503 27,300 1,440 Climbing FlightAware
02:32PM 40.5380 30.0930 113° Southeast 444 511 28,200 1,080 Climbing FlightAware
02:33PM 40.4820 30.2660 113° Southeast 448 516 29,300 600 Climbing FlightAware
02:34PM 40.4540 30.3510 113° Southeast 448 516 29,300 1,380 Level FlightAware
02:35PM 40.4110 30.4800 114° Southeast 469 540 31,300 1,860 Climbing FlightAware
02:35PM 40.3740 30.5920 113° Southeast 475 547 32,000 1,020 Climbing FlightAware
02:36PM 40.3330 30.7140 114° Southeast 482 555 32,800 660 Climbing FlightAware
02:37PM 40.3090 30.8230 106° East 484 557 33,000 120 Climbing FlightAware
02:37PM 40.2970 30.9350 98° East 483 556 33,000 60 Level FlightAware
02:38PM 40.2720 31.0710 104° East 482 555 33,100 840 Climbing FlightAware
02:39PM 40.2510 31.1760 105° East 473 544 34,200 1,260 Climbing FlightAware
02:39PM 40.2300 31.2780 105° East 475 547 34,700 1,020 Climbing FlightAware
02:40PM 40.2050 31.4010 105° East 467 537 35,600 1,020 Climbing FlightAware
02:41PM 40.1820 31.5110 105° East 464 534 36,200 900 Climbing FlightAware
02:42PM 40.1580 31.6290 105° East 461 531 36,900 540 Climbing FlightAware
02:42PM 40.1350 31.7400 105° East 467 537 37,000 60 Climbing FlightAware
02:43PM 40.1110 31.8570 105° East 471 542 37,000  Level FlightAware
02:44PM 40.0840 31.9840 105° East 471 542 37,000  Level FlightAware
02:44PM 40.0610 32.0940 105° East 473 544 37,000  Level FlightAware
02:45PM 40.0470 32.1620 105° East 468 539 37,000  Level FlightAware
02:46PM 40.0210 32.2850 105° East 467 537 37,000  Level FlightAware
02:46PM 39.9980 32.3930 106° East 467 537 37,000  Level FlightAware
02:47PM 39.9720 32.5150 106° East 467 537 37,000  Level FlightAware
02:48PM 39.9540 32.5960 106° East 468 539 37,000  Level FlightAware
02:48PM 39.9310 32.7040 105° East 468 539 37,000  Level FlightAware
02:49PM 39.9070 32.8140 106° East 468 539 37,000  Level FlightAware
02:49PM 39.8920 32.8820 106° East 468 539 37,000  Level FlightAware
02:50PM 39.8650 33.0040 106° East 465 535 37,000  Level FlightAware
02:53PM 39.8572 33.4036 91° East  Level Estimated
02:54PM 39.8536 33.5666 92° East  Level Estimated
02:55PM 39.8498 33.7297 92° East  Level Estimated
02:55PM 39.6920 33.7790 92° East 456 525 37,000  Level FlightAware
02:56PM 39.6650 33.8970 107° East 455 524 37,000  Level FlightAware
02:56PM 39.6470 33.9740 107° East 454 522 37,000  Level FlightAware
02:57PM 39.6230 34.0770 107° East 453 521 37,000  Level FlightAware
02:58PM 39.5960 34.1960 106° East 452 520 37,000  Level FlightAware
02:58PM 39.5720 34.2990 107° East 457 526 37,000  Level FlightAware
02:59PM 39.5480 34.4050 106° East 464 534 37,000  Level FlightAware
03:00PM 39.5200 34.5250 107° East 465 535 37,000  Level FlightAware
03:00PM 39.4950 34.6300 107° East 465 535 37,000  Level FlightAware
03:01PM 39.4660 34.7490 107° East 464 534 37,000  Level FlightAware
03:02PM 39.4400 34.8570 107° East 465 535 37,000  Level FlightAware
03:02PM 39.4150 34.9620 107° East 465 535 37,000  Level FlightAware
03:03PM 39.3900 35.0710 106° East 465 535 37,000  Level FlightAware
03:04PM 39.3680 35.1610 108° East 465 535 37,000  Level FlightAware
03:05PM 39.3470 35.2520 107° East 465 535 37,000  Level FlightAware
03:05PM 39.3260 35.3420 107° East 465 535 37,000  Level FlightAware
03:06PM 39.3040 35.4330 107° East 465 535 37,000  Level FlightAware
03:07PM 39.2770 35.5460 107° East 465 535 37,000  Level FlightAware
03:07PM 39.2560 35.6360 107° East 465 535 37,000  Level FlightAware
03:08PM 39.2350 35.7260 107° East 465 535 37,000  Level FlightAware
03:09PM 39.2130 35.8170 107° East 465 535 37,000  Level FlightAware
03:09PM 39.1920 35.9070 107° East 465 535 37,000  Level FlightAware
03:10PM 39.1700 35.9970 107° East 465 535 37,000  Level FlightAware
03:11PM 39.1440 36.1100 106° East 465 535 37,000  Level FlightAware
03:12PM 39.1220 36.2000 107° East 465 535 37,000  Level FlightAware
03:12PM 39.1010 36.2900 107° East 465 535 37,000  Level FlightAware
03:15PM 39.0930 36.6583 91° East  Level Estimated
03:16PM 39.0891 36.8196 92° East  Level Estimated
03:17PM 39.0850 36.9808 92° East  Level Estimated
03:18PM 39.0807 37.1420 92° East  Level Estimated
03:19PM 39.0761 37.3032 92° East  Level Estimated
03:20PM 39.0714 37.4644 92° East  Level Estimated
03:21PM 39.0664 37.6256 92° East  Level Estimated
03:22PM 39.0611 37.7867 92° East  Level Estimated
03:23PM 39.0557 37.9479 92° East  Level Estimated
03:24PM 39.0501 38.1090 93° East  Level Estimated
03:25PM 39.0442 38.2700 93° East  Level Estimated
03:26PM 39.0381 38.4311 93° East  Level Estimated
03:27PM 39.0318 38.5921 93° East  Level Estimated
03:28PM 39.0252 38.7531 93° East  Level Estimated
03:29PM 39.0185 38.9140 93° East  Level Estimated
03:30PM 39.0115 39.0749 93° East  Level Estimated
03:31PM 39.0043 39.2358 93° East  Level Estimated
03:32PM 38.9968 39.3967 93° East  Level Estimated
03:33PM 38.9892 39.5575 93° East  Level Estimated
03:34PM 38.9813 39.7183 94° East  Level Estimated
03:35PM 38.9732 39.8790 94° East  Level Estimated
03:36PM 38.9649 40.0397 94° East  Level Estimated
03:37PM 38.9564 40.2004 94° East  Level Estimated
03:38PM 38.9477 40.3610 94° East  Level Estimated
03:39PM 38.9387 40.5216 94° East  Level Estimated
03:40PM 38.9295 40.6822 94° East  Level Estimated
03:41PM 38.9201 40.8427 94° East  Level Estimated
03:42PM 38.9104 41.0031 94° East  Level Estimated
03:43PM 38.9006 41.1636 94° East  Level Estimated
03:43PM 38.4000 41.3570 94° East 455 524 37,000  Level FlightAware
03:43PM 38.3770 41.4410 109° East 455 524 37,000  Level FlightAware
03:44PM 38.3540 41.5280 109° East 455 524 37,000  Level FlightAware
03:45PM 38.3250 41.6350 109° East 455 524 37,000  Level FlightAware
03:45PM 38.3020 41.7220 109° East 455 524 37,000  Level FlightAware
03:46PM 38.2780 41.9030 100° East 455 524 37,000  Level FlightAware
03:47PM 38.2490 42.0480 104° East 458 527 37,000  Level FlightAware
03:48PM 38.2290 42.1520 104° East 458 527 37,000  Level FlightAware
03:48PM 38.2060 42.2650 104° East 458 527 37,000  Level FlightAware
03:49PM 38.1850 42.3710 104° East 457 526 37,000  Level FlightAware
03:50PM 38.1650 42.4720 104° East 458 527 37,000  Level FlightAware
03:51PM 38.1410 42.5880 105° East 460 529 37,000  Level FlightAware
03:51PM 38.1160 42.7120 104° East 463 533 37,000  Level FlightAware
03:52PM 38.1000 42.7890 105° East 464 534 37,000  Level FlightAware
03:52PM 38.0810 42.8830 104° East 465 535 37,000  Level FlightAware
03:53PM 38.0570 43.0010 104° East 465 535 37,000  Level FlightAware
03:54PM 38.0350 43.1060 105° East 465 535 37,000  Level FlightAware
03:55PM 38.0100 43.2270 105° East 466 536 37,000  Level FlightAware
03:55PM 37.9880 43.3320 105° East 467 537 37,000  Level FlightAware
03:56PM 37.9650 43.4380 105° East 467 537 37,000  Level FlightAware
03:57PM 37.9410 43.5530 105° East 466 536 37,000  Level FlightAware
03:57PM 37.9190 43.6600 105° East 466 536 37,000  Level FlightAware
03:58PM 37.8930 43.7790 105° East 462 532 37,000  Level FlightAware
03:59PM 37.8700 43.8840 105° East 458 527 37,000  Level FlightAware
03:59PM 37.8480 43.9870 105° East 457 526 37,000  Level FlightAware
04:00PM 37.8240 44.1000 105° East 456 525 37,000  Level FlightAware
04:01PM 37.8020 44.2030 105° East 452 520 37,000  Level FlightAware
04:02PM 37.7760 44.3190 106° East 450 518 37,000  Level FlightAware
04:02PM 37.7540 44.4190 106° East 452 520 37,000  Level FlightAware
04:03PM 37.7310 44.5220 106° East 456 525 37,000  Level FlightAware
04:04PM 37.7090 44.6380 103° East 465 535 37,000  Level FlightAware
04:04PM 37.7030 44.7460 94° East 470 541 37,000  Level FlightAware
04:05PM 37.6970 44.8720 93° East 467 537 37,000  Level FlightAware
04:06PM 37.6920 44.9810 93° East 467 537 37,000  Level FlightAware
04:06PM 37.6830 45.0890 96° East 465 535 37,000  Level FlightAware
04:07PM 37.6560 45.2010 107° East 460 529 37,000  Level FlightAware
04:08PM 37.6300 45.3030 108° East 460 529 37,000  Level FlightAware
04:08PM 37.6020 45.4050 109° East 461 531 37,000  Level FlightAware
04:09PM 37.5720 45.5200 108° East 462 532 37,000  Level FlightAware
04:10PM 37.5440 45.6260 108° East 467 537 37,000  Level FlightAware
04:11PM 37.5130 45.7410 109° East 468 539 37,000  Level FlightAware
04:11PM 37.4860 45.8410 109° East 468 539 37,000  Level FlightAware
04:12PM 37.4590 45.9460 108° East 470 541 37,000  Level FlightAware
04:13PM 37.4270 46.0620 109° East 471 542 37,000  Level FlightAware
04:13PM 37.4010 46.1590 109° East 472 543 37,000  Level FlightAware
04:14PM 37.3690 46.2730 109° East 476 548 37,000  Level FlightAware
04:15PM 37.3390 46.3860 108° East 477 549 37,000  Level FlightAware
04:15PM 37.3170 46.4690 108° East 477 549 37,000  Level FlightAware
04:16PM 37.2880 46.5810 108° East 477 549 37,000  Level FlightAware
04:17PM 37.2650 46.6710 108° East 477 549 37,000  Level FlightAware
04:18PM 37.2420 46.7610 108° East 477 549 37,000  Level FlightAware
04:18PM 37.2190 46.8500 108° East 477 549 37,000  Level FlightAware
04:19PM 37.1950 46.9400 108° East 477 549 37,000  Level FlightAware
04:20PM 37.1660 47.0520 108° East 477 549 37,000  Level FlightAware
04:20PM 37.1430 47.1410 108° East 477 549 37,000  Level FlightAware
04:21PM 37.1200 47.2310 108° East 477 549 37,000  Level FlightAware
04:22PM 37.0970 47.3200 108° East 477 549 37,000  Level FlightAware
04:22PM 37.0740 47.4100 108° East 477 549 37,000  Level FlightAware
04:23PM 37.0450 47.5220 108° East 477 549 37,000  Level FlightAware
04:24PM 37.0210 47.6110 109° East 477 549 37,000  Level FlightAware
04:25PM 36.9980 47.7000 108° East 477 549 37,000  Level FlightAware
04:27PM 36.9935 48.0057 91° East  Level Estimated
04:28PM 36.9909 48.1624 91° East  Level Estimated
04:29PM 36.9881 48.3192 91° East  Level Estimated
04:30PM 36.9850 48.4759 91° East  Level Estimated
04:31PM 36.9818 48.6326 91° East  Level Estimated
04:32PM 36.9784 48.7893 92° East  Level Estimated
04:33PM 36.9747 48.9460 92° East  Level Estimated
04:34PM 36.9709 49.1027 92° East  Level Estimated
04:35PM 36.9668 49.2593 92° East  Level Estimated
04:36PM 36.9626 49.4160 92° East  Level Estimated
04:37PM 36.9581 49.5726 92° East  Level Estimated
04:38PM 36.9534 49.7292 92° East  Level Estimated
04:39PM 36.9486 49.8858 92° East  Level Estimated
04:40PM 36.9435 50.0423 92° East  Level Estimated
04:41PM 36.9382 50.1989 92° East  Level Estimated
04:42PM 36.9327 50.3554 92° East  Level Estimated
04:43PM 36.9270 50.5119 93° East  Level Estimated
04:44PM 36.9211 50.6683 93° East  Level Estimated
04:45PM 36.9150 50.8248 93° East  Level Estimated
04:46PM 36.9087 50.9812 93° East  Level Estimated
04:47PM 36.9021 51.1376 93° East  Level Estimated
04:48PM 36.8954 51.2940 93° East  Level Estimated
04:49PM 36.8885 51.4503 93° East  Level Estimated
04:50PM 36.8814 51.6066 93° East  Level Estimated
04:51PM 36.8740 51.7629 93° East  Level Estimated
04:52PM 36.8665 51.9191 93° East  Level Estimated
04:53PM 36.8587 52.0754 94° East  Level Estimated
04:54PM 36.8508 52.2315 94° East  Level Estimated
04:55PM 36.8426 52.3877 94° East  Level Estimated
04:56PM 36.8343 52.5438 94° East  Level Estimated
04:57PM 36.8257 52.6999 94° East  Level Estimated
04:58PM 36.8169 52.8559 94° East  Level Estimated
04:59PM 36.8080 53.0120 94° East  Level Estimated
05:00PM 36.7988 53.1679 94° East  Level Estimated
05:01PM 36.7894 53.3239 94° East  Level Estimated
05:02PM 36.7798 53.4798 94° East  Level Estimated
05:03PM 36.7700 53.6356 94° East  Level Estimated
05:04PM 36.7600 53.7915 95° East  Level Estimated
05:05PM 36.7499 53.9472 95° East  Level Estimated
05:06PM 36.7394 54.1030 95° East  Level Estimated
05:07PM 36.7289 54.2587 95° East  Level Estimated
05:08PM 36.7180 54.4143 95° East  Level Estimated
05:09PM 36.7071 54.5699 95° East  Level Estimated
05:10PM 36.6958 54.7255 95° East  Level Estimated
05:11PM 36.6844 54.8810 95° East  Level Estimated
05:12PM 36.6728 55.0365 95° East  Level Estimated
05:13PM 36.6610 55.1919 95° East  Level Estimated
05:14PM 36.6490 55.3473 95° East  Level Estimated
05:15PM 36.6368 55.5026 96° East  Level Estimated
05:16PM 36.6244 55.6579 96° East  Level Estimated
05:17PM 36.6117 55.8131 96° East  Level Estimated
05:18PM 36.5989 55.9683 96° East  Level Estimated
05:19PM 36.5859 56.1234 96° East  Level Estimated
05:20PM 36.5727 56.2785 96° East  Level Estimated
05:21PM 36.5592 56.4335 96° East  Level Estimated
05:22PM 36.5456 56.5884 96° East  Level Estimated
05:23PM 36.5318 56.7434 96° East  Level Estimated
05:24PM 36.5178 56.8982 96° East  Level Estimated
05:25PM 36.5035 57.0530 96° East  Level Estimated
05:26PM 36.4891 57.2077 97° East  Level Estimated
05:27PM 36.4745 57.3624 97° East  Level Estimated
05:28PM 36.4597 57.5170 97° East  Level Estimated
05:29PM 36.4446 57.6716 97° East  Level Estimated
05:30PM 36.4294 57.8261 97° East  Level Estimated
05:31PM 36.4140 57.9805 97° East  Level Estimated
05:32PM 36.3984 58.1349 97° East  Level Estimated
05:33PM 36.3826 58.2892 97° East  Level Estimated
05:34PM 36.3665 58.4435 97° East  Level Estimated
05:35PM 36.3503 58.5977 97° East  Level Estimated
05:36PM 36.3339 58.7518 97° East  Level Estimated
05:37PM 36.3173 58.9058 98° East  Level Estimated
05:38PM 36.3005 59.0598 98° East  Level Estimated
05:39PM 36.2835 59.2138 98° East  Level Estimated
05:40PM 36.2663 59.3676 98° East  Level Estimated
05:41PM 36.2489 59.5214 98° East  Level Estimated
05:42PM 36.2352 59.6410 98° East  Level Estimated
05:43PM 36.2352 59.6410 18° North  Level Estimated
05:44PM 36.2352 59.6410 18° North  Level Estimated
05:45PM 36.2352 59.6410 18° North  Level Estimated
05:46PM 36.2352 59.6410 18° North  Level Estimated
05:47PM 36.2352 59.6410 18° North  Level Estimated
05:48PM 36.2352 59.6410 18° North  Level Estimated
05:49PM 36.2352 59.6410 18° North  Level Estimated
05:50PM 36.2352 59.6410 18° North  Level Estimated
05:51PM 36.2352 59.6410 18° North  Level Estimated